sensor_id;sensor_type;location;lat;lon;timestamp;pressure;altitude;pressure_sealevel;temperature;humidity
56912;BME280;42800;53.928;27.662;2022-10-22T00:00:17;99032.81;;;4.79;100.00
56912;BME280;42800;53.928;27.662;2022-10-22T00:02:43;99007.63;;;4.69;100.00
56912;BME280;42800;53.928;27.662;2022-10-22T00:05:10;98996.31;;;4.88;100.00
56912;BME280;42800;53.928;27.662;2022-10-22T00:07:36;99002.50;;;4.77;100.00
56912;BME280;42800;53.928;27.662;2022-10-22T00:10:04;99026.69;;;4.90;100.00
56912;BME280;42800;53.928;27.662;2022-10-22T00:12:32;99043.38;;;4.51;100.00
56912;BME280;42800;53.928;27.662;2022-10-22T00:14:58;99124.63;;;4.56;100.00
56912;BME280;42800;53.928;27.662;2022-10-22T00:17:25;99084.19;;;4.24;100.00
56912;BME280;42800;53.928;27.662;2022-10-22T00:19:51;99151.53;;;4.40;100.00
56912;BME280;42800;53.928;27.662;2022-10-22T00:22:17;99143.84;;;4.42;100.00
56912;BME280;42800;53.928;27.662;2022-10-22T00:24:43;99146.19;;;4.52;100.00
56912;BME280;42800;53.928;27.662;2022-10-22T00:27:10;99130.81;;;4.09;100.00
56912;BME280;42800;53.928;27.662;2022-10-22T00:29:37;99167.91;;;4.52;100.00
56912;BME280;42800;53.928;27.662;2022-10-22T00:32:05;99165.59;;;4.24;100.00
56912;BME280;42800;53.928;27.662;2022-10-22T00:34:31;99160.72;;;4.56;100.00
56912;BME280;42800;53.928;27.662;2022-10-22T00:36:58;99145.75;;;4.41;100.00
56912;BME280;42800;53.928;27.662;2022-10-22T00:39:25;99138.69;;;4.58;100.00
56912;BME280;42800;53.928;27.662;2022-10-22T00:41:52;99142.41;;;4.36;100.00
56912;BME280;42800;53.928;27.662;2022-10-22T00:44:59;99193.72;;;4.03;100.00
56912;BME280;42800;53.928;27.662;2022-10-22T00:47:28;99268.41;;;4.09;100.00
56912;BME280;42800;53.928;27.662;2022-10-22T00:49:56;99258.31;;;4.35;100.00
56912;BME280;42800;53.928;27.662;2022-10-22T00:52:23;99212.28;;;4.65;100.00
56912;BME280;42800;53.928;27.662;2022-10-22T00:54:50;99178.47;;;4.54;100.00
56912;BME280;42800;53.928;27.662;2022-10-22T00:57:18;99113.97;;;4.80;100.00
56912;BME280;42800;53.928;27.662;2022-10-22T00:59:45;99080.75;;;4.45;100.00
56912;BME280;42800;53.928;27.662;2022-10-22T01:02:13;99122.03;;;4.21;100.00
56912;BME280;42800;53.928;27.662;2022-10-22T01:04:40;99174.97;;;4.44;100.00
56912;BME280;42800;53.928;27.662;2022-10-22T01:07:07;99165.97;;;3.97;100.00
56912;BME280;42800;53.928;27.662;2022-10-22T01:09:40;99224.63;;;4.45;100.00
56912;BME280;42800;53.928;27.662;2022-10-22T01:12:14;99184.03;;;4.57;100.00
56912;BME280;42800;53.928;27.662;2022-10-22T01:14:50;99114.34;;;4.23;100.00
56912;BME280;42800;53.928;27.662;2022-10-22T01:17:30;99164.97;;;4.28;100.00
56912;BME280;42800;53.928;27.662;2022-10-22T01:20:07;99192.09;;;4.28;100.00
56912;BME280;42800;53.928;27.662;2022-10-22T01:22:40;99199.78;;;4.17;100.00
56912;BME280;42800;53.928;27.662;2022-10-22T01:25:11;99190.78;;;4.42;100.00
56912;BME280;42800;53.928;27.662;2022-10-22T01:27:51;99181.88;;;4.16;100.00
56912;BME280;42800;53.928;27.662;2022-10-22T01:30:21;99172.25;;;4.36;100.00
56912;BME280;42800;53.928;27.662;2022-10-22T01:32:50;99173.06;;;4.36;100.00
56912;BME280;42800;53.928;27.662;2022-10-22T01:35:21;99189.22;;;4.24;100.00
56912;BME280;42800;53.928;27.662;2022-10-22T01:37:51;99194.81;;;4.28;100.00
56912;BME280;42800;53.928;27.662;2022-10-22T01:40:19;99229.00;;;4.20;100.00
56912;BME280;42800;53.928;27.662;2022-10-22T01:42:55;99195.94;;;4.27;100.00
56912;BME280;42800;53.928;27.662;2022-10-22T01:45:22;99195.94;;;4.09;100.00
56912;BME280;42800;53.928;27.662;2022-10-22T01:47:57;99213.81;;;3.93;100.00
56912;BME280;42800;53.928;27.662;2022-10-22T01:53:40;99245.41;;;4.15;100.00
56912;BME280;42800;53.928;27.662;2022-10-22T01:56:19;99233.59;;;4.02;100.00
56912;BME280;42800;53.928;27.662;2022-10-22T01:58:54;99232.47;;;4.38;100.00
56912;BME280;42800;53.928;27.662;2022-10-22T02:01:28;99171.31;;;4.32;100.00
56912;BME280;42800;53.928;27.662;2022-10-22T02:04:01;99139.31;;;4.55;100.00
56912;BME280;42800;53.928;27.662;2022-10-22T02:06:31;99155.22;;;4.27;100.00
56912;BME280;42800;53.928;27.662;2022-10-22T02:08:59;99147.41;;;4.16;100.00
56912;BME280;42800;53.928;27.662;2022-10-22T02:11:27;99149.63;;;4.23;100.00
56912;BME280;42800;53.928;27.662;2022-10-22T02:13:56;99157.75;;;4.32;100.00
56912;BME280;42800;53.928;27.662;2022-10-22T02:16:28;99164.59;;;4.38;100.00
56912;BME280;42800;53.928;27.662;2022-10-22T02:18:57;99132.03;;;4.38;100.00
56912;BME280;42800;53.928;27.662;2022-10-22T02:21:26;99139.88;;;4.31;100.00
56912;BME280;42800;53.928;27.662;2022-10-22T02:23:52;99122.25;;;4.45;100.00
56912;BME280;42800;53.928;27.662;2022-10-22T02:26:22;99087.47;;;4.39;100.00
56912;BME280;42800;53.928;27.662;2022-10-22T02:28:57;99127.28;;;4.26;100.00
56912;BME280;42800;53.928;27.662;2022-10-22T02:31:27;99182.03;;;4.28;100.00
56912;BME280;42800;53.928;27.662;2022-10-22T02:33:58;99189.38;;;4.28;100.00
56912;BME280;42800;53.928;27.662;2022-10-22T02:36:29;99164.19;;;4.01;100.00
56912;BME280;42800;53.928;27.662;2022-10-22T02:38:56;99228.50;;;4.27;100.00
56912;BME280;42800;53.928;27.662;2022-10-22T02:41:23;99214.28;;;4.12;100.00
56912;BME280;42800;53.928;27.662;2022-10-22T02:43:54;99215.84;;;4.39;100.00
56912;BME280;42800;53.928;27.662;2022-10-22T02:46:20;99156.28;;;4.43;100.00
56912;BME280;42800;53.928;27.662;2022-10-22T02:48:47;99081.19;;;4.56;100.00
56912;BME280;42800;53.928;27.662;2022-10-22T02:51:13;99056.53;;;4.31;100.00
56912;BME280;42800;53.928;27.662;2022-10-22T02:53:39;99138.75;;;4.32;100.00
56912;BME280;42800;53.928;27.662;2022-10-22T02:56:06;99174.22;;;4.27;100.00
56912;BME280;42800;53.928;27.662;2022-10-22T02:58:32;99125.03;;;4.37;100.00
56912;BME280;42800;53.928;27.662;2022-10-22T03:00:59;99147.38;;;4.34;100.00
56912;BME280;42800;53.928;27.662;2022-10-22T03:03:25;99182.03;;;4.19;100.00
56912;BME280;42800;53.928;27.662;2022-10-22T03:05:52;99171.97;;;4.37;100.00
56912;BME280;42800;53.928;27.662;2022-10-22T03:08:18;99166.03;;;4.44;100.00
56912;BME280;42800;53.928;27.662;2022-10-22T03:10:44;99149.47;;;4.19;100.00
56912;BME280;42800;53.928;27.662;2022-10-22T03:13:11;99178.47;;;4.45;100.00
56912;BME280;42800;53.928;27.662;2022-10-22T03:15:37;99106.03;;;4.28;100.00
56912;BME280;42800;53.928;27.662;2022-10-22T03:18:03;99129.03;;;4.31;100.00
56912;BME280;42800;53.928;27.662;2022-10-22T03:20:29;99149.97;;;4.21;100.00
56912;BME280;42800;53.928;27.662;2022-10-22T03:22:56;99178.88;;;4.17;100.00
56912;BME280;42800;53.928;27.662;2022-10-22T03:25:24;99197.06;;;3.82;100.00
56912;BME280;42800;53.928;27.662;2022-10-22T03:27:52;99242.72;;;4.23;100.00
56912;BME280;42800;53.928;27.662;2022-10-22T03:30:20;99246.84;;;4.21;100.00
56912;BME280;42800;53.928;27.662;2022-10-22T03:32:47;99237.59;;;4.13;100.00
56912;BME280;42800;53.928;27.662;2022-10-22T03:35:13;99206.41;;;4.54;100.00
56912;BME280;42800;53.928;27.662;2022-10-22T03:37:39;99130.91;;;4.39;100.00
56912;BME280;42800;53.928;27.662;2022-10-22T03:40:08;99148.56;;;4.07;100.00
56912;BME280;42800;53.928;27.662;2022-10-22T03:42:36;99181.25;;;3.93;100.00
56912;BME280;42800;53.928;27.662;2022-10-22T03:45:02;99241.09;;;4.05;100.00
56912;BME280;42800;53.928;27.662;2022-10-22T03:47:29;99200.53;;;4.35;100.00
56912;BME280;42800;53.928;27.662;2022-10-22T03:49:55;99152.66;;;4.30;100.00
56912;BME280;42800;53.928;27.662;2022-10-22T03:52:22;99103.31;;;4.37;100.00
56912;BME280;42800;53.928;27.662;2022-10-22T03:54:48;99119.38;;;4.51;100.00
56912;BME280;42800;53.928;27.662;2022-10-22T03:57:15;99089.88;;;4.40;100.00
56912;BME280;42800;53.928;27.662;2022-10-22T03:59:43;99133.03;;;4.24;100.00
56912;BME280;42800;53.928;27.662;2022-10-22T04:02:10;99126.16;;;4.27;100.00
56912;BME280;42800;53.928;27.662;2022-10-22T04:04:37;99142.88;;;4.46;100.00
56912;BME280;42800;53.928;27.662;2022-10-22T04:07:03;99129.31;;;4.38;100.00
56912;BME280;42800;53.928;27.662;2022-10-22T04:09:30;99103.84;;;4.13;100.00
56912;BME280;42800;53.928;27.662;2022-10-22T04:11:56;99145.03;;;4.15;100.00
56912;BME280;42800;53.928;27.662;2022-10-22T04:14:23;99186.69;;;4.10;100.00
56912;BME280;42800;53.928;27.662;2022-10-22T04:16:50;99226.09;;;3.99;100.00
56912;BME280;42800;53.928;27.662;2022-10-22T04:19:16;99236.31;;;4.37;100.00
56912;BME280;42800;53.928;27.662;2022-10-22T04:21:43;99175.97;;;4.22;100.00
56912;BME280;42800;53.928;27.662;2022-10-22T04:24:09;99157.09;;;4.43;100.00
56912;BME280;42800;53.928;27.662;2022-10-22T04:26:35;99071.31;;;4.51;100.00
56912;BME280;42800;53.928;27.662;2022-10-22T04:29:02;99047.50;;;4.57;100.00
56912;BME280;42800;53.928;27.662;2022-10-22T04:31:29;99020.66;;;4.25;100.00
56912;BME280;42800;53.928;27.662;2022-10-22T04:33:57;99080.69;;;4.15;100.00
56912;BME280;42800;53.928;27.662;2022-10-22T04:36:24;99109.75;;;4.06;100.00
56912;BME280;42800;53.928;27.662;2022-10-22T04:38:53;99120.56;;;4.32;100.00
56912;BME280;42800;53.928;27.662;2022-10-22T04:41:21;99081.25;;;4.47;100.00
56912;BME280;42800;53.928;27.662;2022-10-22T04:43:48;99025.59;;;4.53;100.00
56912;BME280;42800;53.928;27.662;2022-10-22T04:46:15;99008.66;;;4.56;100.00
56912;BME280;42800;53.928;27.662;2022-10-22T04:48:43;98995.03;;;4.06;100.00
56912;BME280;42800;53.928;27.662;2022-10-22T04:51:12;99040.34;;;4.14;100.00
56912;BME280;42800;53.928;27.662;2022-10-22T04:53:39;99070.94;;;4.23;100.00
56912;BME280;42800;53.928;27.662;2022-10-22T04:56:06;99085.97;;;4.20;100.00
56912;BME280;42800;53.928;27.662;2022-10-22T04:58:33;99096.09;;;4.41;100.00
56912;BME280;42800;53.928;27.662;2022-10-22T05:00:59;99070.84;;;4.11;100.00
56912;BME280;42800;53.928;27.662;2022-10-22T05:03:25;99154.75;;;4.24;100.00
56912;BME280;42800;53.928;27.662;2022-10-22T05:05:52;99140.50;;;4.36;100.00
56912;BME280;42800;53.928;27.662;2022-10-22T05:08:18;99108.41;;;4.38;100.00
56912;BME280;42800;53.928;27.662;2022-10-22T05:10:45;99091.75;;;3.93;100.00
56912;BME280;42800;53.928;27.662;2022-10-22T05:13:11;99113.75;;;4.17;100.00
56912;BME280;42800;53.928;27.662;2022-10-22T05:15:37;99122.53;;;4.06;100.00
56912;BME280;42800;53.928;27.662;2022-10-22T05:18:03;99144.88;;;4.20;100.00
56912;BME280;42800;53.928;27.662;2022-10-22T05:20:30;99118.69;;;4.62;100.00
56912;BME280;42800;53.928;27.662;2022-10-22T05:22:57;99051.94;;;4.23;100.00
56912;BME280;42800;53.928;27.662;2022-10-22T05:25:23;99105.13;;;4.15;100.00
56912;BME280;42800;53.928;27.662;2022-10-22T05:27:49;99128.47;;;4.55;100.00
56912;BME280;42800;53.928;27.662;2022-10-22T05:30:15;99105.41;;;4.31;100.00
56912;BME280;42800;53.928;27.662;2022-10-22T05:32:42;99082.25;;;4.34;100.00
56912;BME280;42800;53.928;27.662;2022-10-22T05:35:09;99107.88;;;4.07;100.00
56912;BME280;42800;53.928;27.662;2022-10-22T05:37:35;99115.03;;;4.11;100.00
56912;BME280;42800;53.928;27.662;2022-10-22T05:40:02;99153.81;;;4.03;100.00
56912;BME280;42800;53.928;27.662;2022-10-22T05:42:30;99198.19;;;4.07;100.00
56912;BME280;42800;53.928;27.662;2022-10-22T05:44:57;99214.44;;;3.90;100.00
56912;BME280;42800;53.928;27.662;2022-10-22T05:47:23;99239.66;;;4.25;100.00
56912;BME280;42800;53.928;27.662;2022-10-22T05:49:50;99230.88;;;4.19;100.00
56912;BME280;42800;53.928;27.662;2022-10-22T05:52:16;99205.44;;;4.59;100.00
56912;BME280;42800;53.928;27.662;2022-10-22T05:54:42;99100.47;;;4.92;100.00
56912;BME280;42800;53.928;27.662;2022-10-22T05:57:09;99006.59;;;4.83;100.00
56912;BME280;42800;53.928;27.662;2022-10-22T05:59:35;98990.75;;;4.64;100.00
56912;BME280;42800;53.928;27.662;2022-10-22T06:02:01;98989.59;;;4.44;100.00
56912;BME280;42800;53.928;27.662;2022-10-22T06:04:28;99091.25;;;4.17;100.00
56912;BME280;42800;53.928;27.662;2022-10-22T06:06:54;99106.69;;;4.25;100.00
56912;BME280;42800;53.928;27.662;2022-10-22T06:09:22;99107.06;;;4.53;100.00
56912;BME280;42800;53.928;27.662;2022-10-22T06:11:50;99109.88;;;4.65;100.00
56912;BME280;42800;53.928;27.662;2022-10-22T06:14:17;99070.59;;;4.33;100.00
56912;BME280;42800;53.928;27.662;2022-10-22T06:16:44;99057.38;;;4.61;100.00
56912;BME280;42800;53.928;27.662;2022-10-22T06:19:14;99059.81;;;4.45;100.00
56912;BME280;42800;53.928;27.662;2022-10-22T06:21:40;99079.09;;;4.61;100.00
56912;BME280;42800;53.928;27.662;2022-10-22T06:24:07;99007.06;;;4.85;100.00
56912;BME280;42800;53.928;27.662;2022-10-22T06:26:34;98946.91;;;4.74;100.00
56912;BME280;42800;53.928;27.662;2022-10-22T06:29:01;98989.56;;;4.74;100.00
56912;BME280;42800;53.928;27.662;2022-10-22T06:31:28;99012.56;;;4.97;100.00
56912;BME280;42800;53.928;27.662;2022-10-22T06:34:01;98906.06;;;4.70;100.00
56912;BME280;42800;53.928;27.662;2022-10-22T06:36:27;98925.09;;;4.83;100.00
56912;BME280;42800;53.928;27.662;2022-10-22T06:38:54;98907.91;;;5.12;100.00
56912;BME280;42800;53.928;27.662;2022-10-22T06:41:21;98846.59;;;4.90;100.00
56912;BME280;42800;53.928;27.662;2022-10-22T06:43:47;98853.25;;;5.13;100.00
56912;BME280;42800;53.928;27.662;2022-10-22T06:46:16;98775.81;;;4.74;100.00
56912;BME280;42800;53.928;27.662;2022-10-22T06:48:48;98815.34;;;4.51;100.00
56912;BME280;42800;53.928;27.662;2022-10-22T06:51:14;98859.50;;;4.39;100.00
56912;BME280;42800;53.928;27.662;2022-10-22T06:53:40;98959.41;;;4.66;100.00
56912;BME280;42800;53.928;27.662;2022-10-22T06:56:08;98882.25;;;4.88;100.00
56912;BME280;42800;53.928;27.662;2022-10-22T06:58:34;98879.34;;;4.72;100.00
56912;BME280;42800;53.928;27.662;2022-10-22T07:01:01;98856.22;;;5.00;100.00
56912;BME280;42800;53.928;27.662;2022-10-22T07:03:28;98826.97;;;5.17;100.00
56912;BME280;42800;53.928;27.662;2022-10-22T07:05:58;98730.59;;;5.03;100.00
56912;BME280;42800;53.928;27.662;2022-10-22T07:08:24;98723.38;;;5.31;100.00
56912;BME280;42800;53.928;27.662;2022-10-22T07:10:50;98704.91;;;4.88;100.00
56912;BME280;42800;53.928;27.662;2022-10-22T07:13:17;98725.63;;;4.47;100.00
56912;BME280;42800;53.928;27.662;2022-10-22T07:15:43;98808.53;;;4.78;100.00
56912;BME280;42800;53.928;27.662;2022-10-22T07:18:09;98776.06;;;4.81;100.00
56912;BME280;42800;53.928;27.662;2022-10-22T07:20:35;98777.81;;;4.98;100.00
56912;BME280;42800;53.928;27.662;2022-10-22T07:23:02;98791.09;;;4.79;100.00
56912;BME280;42800;53.928;27.662;2022-10-22T07:25:28;98771.03;;;5.16;100.00
56912;BME280;42800;53.928;27.662;2022-10-22T07:27:55;98701.66;;;4.49;100.00
56912;BME280;42800;53.928;27.662;2022-10-22T07:30:21;98765.25;;;4.93;100.00
56912;BME280;42800;53.928;27.662;2022-10-22T07:32:47;98701.84;;;4.77;100.00
56912;BME280;42800;53.928;27.662;2022-10-22T07:35:13;98687.59;;;5.05;100.00
56912;BME280;42800;53.928;27.662;2022-10-22T07:37:39;98702.50;;;4.86;100.00
56912;BME280;42800;53.928;27.662;2022-10-22T07:40:08;98735.59;;;4.55;100.00
56912;BME280;42800;53.928;27.662;2022-10-22T07:42:34;98783.13;;;4.61;100.00
56912;BME280;42800;53.928;27.662;2022-10-22T07:45:00;98805.09;;;4.68;100.00
56912;BME280;42800;53.928;27.662;2022-10-22T07:47:27;98749.78;;;4.73;100.00
56912;BME280;42800;53.928;27.662;2022-10-22T07:49:53;98770.50;;;4.78;100.00
56912;BME280;42800;53.928;27.662;2022-10-22T07:52:19;98749.53;;;4.54;100.00
56912;BME280;42800;53.928;27.662;2022-10-22T07:54:45;98796.09;;;4.77;100.00
56912;BME280;42800;53.928;27.662;2022-10-22T07:57:12;98796.91;;;4.89;100.00
56912;BME280;42800;53.928;27.662;2022-10-22T07:59:39;98767.28;;;4.97;100.00
56912;BME280;42800;53.928;27.662;2022-10-22T08:02:05;98735.34;;;5.06;100.00
56912;BME280;42800;53.928;27.662;2022-10-22T08:04:32;98692.00;;;4.85;100.00
56912;BME280;42800;53.928;27.662;2022-10-22T08:06:58;98647.41;;;5.10;100.00
56912;BME280;42800;53.928;27.662;2022-10-22T08:09:25;98642.31;;;4.72;100.00
56912;BME280;42800;53.928;27.662;2022-10-22T08:11:51;98736.16;;;4.94;100.00
56912;BME280;42800;53.928;27.662;2022-10-22T08:14:19;98701.50;;;5.28;100.00
56912;BME280;42800;53.928;27.662;2022-10-22T08:16:45;98590.25;;;5.47;100.00
56912;BME280;42800;53.928;27.662;2022-10-22T08:19:12;98535.28;;;5.54;100.00
56912;BME280;42800;53.928;27.662;2022-10-22T08:21:38;98513.47;;;5.94;100.00
56912;BME280;42800;53.928;27.662;2022-10-22T08:24:05;98413.03;;;5.57;100.00
56912;BME280;42800;53.928;27.662;2022-10-22T08:26:31;98461.38;;;5.36;100.00
56912;BME280;42800;53.928;27.662;2022-10-22T08:28:58;98436.13;;;5.35;100.00
56912;BME280;42800;53.928;27.662;2022-10-22T08:31:24;98488.63;;;5.52;100.00
56912;BME280;42800;53.928;27.662;2022-10-22T08:33:51;98479.59;;;5.48;100.00
56912;BME280;42800;53.928;27.662;2022-10-22T08:36:17;98471.75;;;5.30;100.00
56912;BME280;42800;53.928;27.662;2022-10-22T08:38:43;98484.09;;;5.28;100.00
56912;BME280;42800;53.928;27.662;2022-10-22T08:41:12;98453.41;;;5.71;100.00
56912;BME280;42800;53.928;27.662;2022-10-22T08:44:00;98396.13;;;5.80;100.00
56912;BME280;42800;53.928;27.662;2022-10-22T08:47:02;98357.84;;;5.73;100.00
56912;BME280;42800;53.928;27.662;2022-10-22T08:49:37;98367.31;;;5.63;100.00
56912;BME280;42800;53.928;27.662;2022-10-22T08:52:10;98352.66;;;5.99;100.00
56912;BME280;42800;53.928;27.662;2022-10-22T08:54:46;98288.63;;;6.21;100.00
56912;BME280;42800;53.928;27.662;2022-10-22T08:57:35;98261.25;;;6.14;100.00
56912;BME280;42800;53.928;27.662;2022-10-22T09:00:10;98250.53;;;6.21;100.00
56912;BME280;42800;53.928;27.662;2022-10-22T09:02:47;98250.53;;;6.21;100.00
56912;BME280;42800;53.928;27.662;2022-10-22T09:05:26;98213.63;;;6.04;100.00
56912;BME280;42800;53.928;27.662;2022-10-22T09:07:54;98263.75;;;6.23;100.00
56912;BME280;42800;53.928;27.662;2022-10-22T09:10:24;98228.56;;;6.53;100.00
56912;BME280;42800;53.928;27.662;2022-10-22T09:12:52;98193.25;;;6.79;100.00
56912;BME280;42800;53.928;27.662;2022-10-22T09:15:18;98195.88;;;6.30;100.00
56912;BME280;42800;53.928;27.662;2022-10-22T09:17:58;98196.22;;;6.28;100.00
56912;BME280;42800;53.928;27.662;2022-10-22T09:20:33;98184.53;;;6.47;100.00
56912;BME280;42800;53.928;27.662;2022-10-22T09:23:13;98163.31;;;6.56;100.00
56912;BME280;42800;53.928;27.662;2022-10-22T09:25:43;98178.81;;;6.56;100.00
56912;BME280;42800;53.928;27.662;2022-10-22T09:28:11;98193.16;;;6.30;100.00
56912;BME280;42800;53.928;27.662;2022-10-22T09:30:38;98197.66;;;6.03;100.00
56912;BME280;42800;53.928;27.662;2022-10-22T09:33:11;98221.28;;;6.18;100.00
56912;BME280;42800;53.928;27.662;2022-10-22T09:35:46;98231.81;;;6.39;100.00
56912;BME280;42800;53.928;27.662;2022-10-22T09:38:14;98224.94;;;6.26;100.00
56912;BME280;42800;53.928;27.662;2022-10-22T09:40:43;98242.06;;;6.07;100.00
56912;BME280;42800;53.928;27.662;2022-10-22T09:43:11;98208.19;;;6.66;100.00
56912;BME280;42800;53.928;27.662;2022-10-22T09:45:37;98202.69;;;6.20;100.00
56912;BME280;42800;53.928;27.662;2022-10-22T09:48:11;98193.31;;;6.60;100.00
56912;BME280;42800;53.928;27.662;2022-10-22T09:50:42;98177.75;;;6.60;100.00
56912;BME280;42800;53.928;27.662;2022-10-22T09:53:13;98157.44;;;6.77;100.00
56912;BME280;42800;53.928;27.662;2022-10-22T09:55:40;98141.91;;;6.81;100.00
56912;BME280;42800;53.928;27.662;2022-10-22T09:58:09;98114.00;;;7.15;100.00
56912;BME280;42800;53.928;27.662;2022-10-22T10:00:37;98111.81;;;7.24;100.00
56912;BME280;42800;53.928;27.662;2022-10-22T10:03:04;98094.94;;;7.75;100.00
56912;BME280;42800;53.928;27.662;2022-10-22T10:05:32;98089.91;;;7.47;100.00
56912;BME280;42800;53.928;27.662;2022-10-22T10:08:06;98103.59;;;6.94;100.00
56912;BME280;42800;53.928;27.662;2022-10-22T10:10:40;98110.00;;;6.82;100.00
56912;BME280;42800;53.928;27.662;2022-10-22T10:13:45;98119.69;;;6.79;100.00
56912;BME280;42800;53.928;27.662;2022-10-22T10:16:25;98127.31;;;6.93;100.00
56912;BME280;42800;53.928;27.662;2022-10-22T10:19:16;98106.25;;;7.17;100.00
56912;BME280;42800;53.928;27.662;2022-10-22T10:21:55;98091.44;;;7.44;100.00
56912;BME280;42800;53.928;27.662;2022-10-22T10:24:34;98086.63;;;7.34;100.00
56912;BME280;42800;53.928;27.662;2022-10-22T10:27:07;98104.88;;;6.77;100.00
56912;BME280;42800;53.928;27.662;2022-10-22T10:29:43;98101.31;;;7.26;100.00
56912;BME280;42800;53.928;27.662;2022-10-22T10:32:36;98091.09;;;6.93;100.00
56912;BME280;42800;53.928;27.662;2022-10-22T10:35:19;98075.03;;;7.11;100.00
56912;BME280;42800;53.928;27.662;2022-10-22T10:37:59;98075.84;;;7.15;100.00
56912;BME280;42800;53.928;27.662;2022-10-22T10:40:33;98067.75;;;6.92;100.00
56912;BME280;42800;53.928;27.662;2022-10-22T10:43:08;98064.84;;;6.81;100.00
56912;BME280;42800;53.928;27.662;2022-10-22T10:45:41;98065.53;;;7.01;100.00
56912;BME280;42800;53.928;27.662;2022-10-22T10:48:18;98063.66;;;6.78;100.00
56912;BME280;42800;53.928;27.662;2022-10-22T10:50:55;98063.59;;;6.75;100.00
56912;BME280;42800;53.928;27.662;2022-10-22T10:53:37;98070.50;;;6.95;100.00
56912;BME280;42800;53.928;27.662;2022-10-22T10:56:20;98057.41;;;7.35;100.00
56912;BME280;42800;53.928;27.662;2022-10-22T10:58:56;98051.81;;;6.67;100.00
56912;BME280;42800;53.928;27.662;2022-10-22T11:01:30;98065.22;;;7.06;100.00
56912;BME280;42800;53.928;27.662;2022-10-22T11:04:23;98067.47;;;6.74;100.00
56912;BME280;42800;53.928;27.662;2022-10-22T11:06:55;98084.94;;;6.73;100.00
56912;BME280;42800;53.928;27.662;2022-10-22T11:09:24;98080.19;;;7.19;100.00
56912;BME280;42800;53.928;27.662;2022-10-22T11:11:57;98068.78;;;7.40;100.00
56912;BME280;42800;53.928;27.662;2022-10-22T11:14:29;98074.22;;;6.57;100.00
56912;BME280;42800;53.928;27.662;2022-10-22T11:17:01;98084.84;;;7.19;100.00
56912;BME280;42800;53.928;27.662;2022-10-22T11:19:34;98078.66;;;6.69;100.00
56912;BME280;42800;53.928;27.662;2022-10-22T11:22:05;98132.84;;;6.51;100.00
56912;BME280;42800;53.928;27.662;2022-10-22T11:24:38;98135.38;;;6.86;100.00
56912;BME280;42800;53.928;27.662;2022-10-22T11:27:17;98147.72;;;6.34;100.00
56912;BME280;42800;53.928;27.662;2022-10-22T11:29:53;98170.59;;;6.52;100.00
56912;BME280;42800;53.928;27.662;2022-10-22T11:32:21;98195.78;;;6.26;100.00
56912;BME280;42800;53.928;27.662;2022-10-22T11:34:53;98223.00;;;6.26;100.00
56912;BME280;42800;53.928;27.662;2022-10-22T11:37:21;98200.53;;;6.95;100.00
56912;BME280;42800;53.928;27.662;2022-10-22T11:39:53;98188.19;;;6.35;100.00
56912;BME280;42800;53.928;27.662;2022-10-22T11:42:21;98242.28;;;6.56;100.00
56912;BME280;42800;53.928;27.662;2022-10-22T11:44:57;98253.50;;;6.74;100.00
56912;BME280;42800;53.928;27.662;2022-10-22T11:47:26;98235.19;;;6.75;100.00
56912;BME280;42800;53.928;27.662;2022-10-22T11:49:58;98181.28;;;6.61;100.00
56912;BME280;42800;53.928;27.662;2022-10-22T11:52:39;98225.16;;;6.36;100.00
56912;BME280;42800;53.928;27.662;2022-10-22T11:55:31;98297.69;;;6.09;100.00
56912;BME280;42800;53.928;27.662;2022-10-22T11:57:59;98360.56;;;6.04;100.00
56912;BME280;42800;53.928;27.662;2022-10-22T12:00:34;98410.22;;;6.17;100.00
56912;BME280;42800;53.928;27.662;2022-10-22T12:03:15;98385.19;;;6.27;100.00
56912;BME280;42800;53.928;27.662;2022-10-22T12:05:42;98344.50;;;6.34;100.00
56912;BME280;42800;53.928;27.662;2022-10-22T12:08:24;98336.63;;;6.68;100.00
56912;BME280;42800;53.928;27.662;2022-10-22T12:10:59;98283.59;;;6.43;100.00
56912;BME280;42800;53.928;27.662;2022-10-22T12:13:30;98278.66;;;6.68;100.00
56912;BME280;42800;53.928;27.662;2022-10-22T12:15:58;98248.84;;;6.36;100.00
56912;BME280;42800;53.928;27.662;2022-10-22T12:18:32;98271.00;;;6.54;100.00
56912;BME280;42800;53.928;27.662;2022-10-22T12:20:59;98266.84;;;6.41;100.00
56912;BME280;42800;53.928;27.662;2022-10-22T12:23:29;98275.50;;;6.66;100.00
56912;BME280;42800;53.928;27.662;2022-10-22T12:25:57;98289.22;;;6.30;100.00
56912;BME280;42800;53.928;27.662;2022-10-22T12:28:23;98303.44;;;6.82;100.00
56912;BME280;42800;53.928;27.662;2022-10-22T12:30:49;98256.81;;;6.25;100.00
56912;BME280;42800;53.928;27.662;2022-10-22T12:33:18;98338.22;;;6.50;100.00
56912;BME280;42800;53.928;27.662;2022-10-22T12:35:46;98298.34;;;6.22;100.00
56912;BME280;42800;53.928;27.662;2022-10-22T12:38:14;98299.81;;;6.55;100.00
56912;BME280;42800;53.928;27.662;2022-10-22T12:40:42;98274.38;;;6.90;100.00
56912;BME280;42800;53.928;27.662;2022-10-22T12:43:13;98246.63;;;6.61;100.00
56912;BME280;42800;53.928;27.662;2022-10-22T12:45:40;98263.28;;;6.79;100.00
56912;BME280;42800;53.928;27.662;2022-10-22T12:48:14;98295.56;;;6.38;100.00
56912;BME280;42800;53.928;27.662;2022-10-22T12:50:42;98277.22;;;6.74;100.00
56912;BME280;42800;53.928;27.662;2022-10-22T12:53:13;98259.09;;;6.62;100.00
56912;BME280;42800;53.928;27.662;2022-10-22T12:55:40;98240.47;;;6.64;100.00
56912;BME280;42800;53.928;27.662;2022-10-22T12:58:07;98268.34;;;7.00;100.00
56912;BME280;42800;53.928;27.662;2022-10-22T13:00:34;98181.66;;;7.09;100.00
56912;BME280;42800;53.928;27.662;2022-10-22T13:03:04;98182.13;;;6.88;100.00
56912;BME280;42800;53.928;27.662;2022-10-22T13:05:32;98264.53;;;6.62;100.00